Clarks Point, AK (99569)

10:26 AM AKDT on October 21, 2019 (GMT -0800)
Clarks Point AP, Clarks Point | | Change Station

Elev 79 ft 58.83 °N, 158.53 °W | Updated 30 minutes ago

Overcast
Overcast
38 °F
Feels Like 29 °F
N
15
Wind Variable Wind from East

Today
High -- | Low -- °F
--% Chance of Precip.
Yesterday
High -- | Low -- °F
Precip. -- in
Pressure 29.52 in
Visibility 6.0 miles
Clouds Few 1700 ft
Mostly Cloudy 2800 ft
Overcast 3900 ft
Windchill 29 °F
Dew Point 38 °F
Humidity 100%
Rainfall 0.01 in
Snow Depth Not available.
9:25 AM 7:11 PM
Waning Gibbous, 47% visible
METAR PFCL 211756Z AUTO 10013KT 6SM -RA BR FEW017 BKN028 OVC039 03/03 A2953 RMK AO2 RAB46 SLP994 P0001 60001 T00330033 10033 20006 55000 TSNO
Pressure 29.52 in
Visibility 6.0 miles
Clouds Few 1700 ft
Mostly Cloudy 2800 ft
Overcast 3900 ft
Windchill 29 °F
Dew Point 38 °F
Humidity 100%
Rainfall 0.01 in
Snow Depth Not available.
9:25 AM 7:11 PM
Waning Gibbous, 47% visible
METAR PFCL 211756Z AUTO 10013KT 6SM -RA BR FEW017 BKN028 OVC039 03/03 A2953 RMK AO2 RAB46 SLP994 P0001 60001 T00330033 10033 20006 55000 TSNO

Get Severe Weather Alerts

Thanks for signing up!

Be on the lookout for a verification email in your inbox.

You'll start receiving the daily forecast at 6 AM.

×

10-Day Weather Forecast

Almanac

Astronomy

Oct. 21, 2019 Rise Set
Actual Time
Civil Twilight
Nautical Twilight
Astronomical Twilight
Moon
Length of Visible Light
Length of Day
Tomorrow will be .
, % of the Moon is Illuminated

Today's Extremes

State Highs State Lows

Community

WunderPhotos

Category 6

Welcome to Category 6. This is the collective home for Weather Underground's featured writeups by Dr. Jeff Masters (right), Bob Henson (left), Chris Burt, and other regular contributors.

Nearby

Air Quality

  Air Quality AQ Index Pollutant
Not available.

Snow Depth

Station Depth Elevation

Earthquake Activity

City Distance Mag. Time & Date
Minimum magnitude displayed is 2.5.

Coastal Water Temperatures

Place Temperature

Stations

Nearby Weather Stations

Station Location Temp. Windchill Dew Point Humidity Wind Precip. Elev Updated Type
                   

Watches & Warnings

There are currently no watches in effect.